createdAt,value
2018-12-21T00:00:42.873Z,92.00
2018-12-21T00:03:11.258Z,92.00
2018-12-21T00:05:39.864Z,92.10
2018-12-21T00:08:08.191Z,92.10
2018-12-21T00:10:36.535Z,92.10
2018-12-21T00:13:04.925Z,92.20
2018-12-21T00:15:33.267Z,92.20
2018-12-21T00:18:01.745Z,92.30
2018-12-21T00:20:30.208Z,92.30
2018-12-21T00:22:58.549Z,92.30
2018-12-21T00:25:26.939Z,92.20
2018-12-21T00:27:55.466Z,92.20
2018-12-21T00:30:23.166Z,92.20
2018-12-21T00:32:57.459Z,92.30
2018-12-21T00:35:31.639Z,92.40
2018-12-21T00:38:05.734Z,92.40
2018-12-21T00:40:39.539Z,92.50
2018-12-21T00:43:40.711Z,92.40
2018-12-21T00:46:44.020Z,92.20
2018-12-21T00:49:12.534Z,92.20
2018-12-21T00:51:41.014Z,92.20
2018-12-21T00:54:10.144Z,92.20
2018-12-21T00:56:38.546Z,92.20
2018-12-21T00:59:06.943Z,92.20
2018-12-21T01:01:35.273Z,92.20
2018-12-21T01:04:03.735Z,92.20
2018-12-21T01:06:32.138Z,92.20
2018-12-21T01:09:01.729Z,92.00
2018-12-21T01:11:30.381Z,91.80
2018-12-21T01:13:58.733Z,91.80
2018-12-21T01:16:27.137Z,91.80
2018-12-21T01:18:55.689Z,91.70
2018-12-21T01:21:24.699Z,91.80
2018-12-21T01:23:53.221Z,91.80
2018-12-21T01:26:21.689Z,91.80
2018-12-21T01:28:50.161Z,91.70
2018-12-21T01:31:18.673Z,91.80
2018-12-21T01:33:47.021Z,91.80
2018-12-21T01:36:15.567Z,91.80
2018-12-21T01:38:43.983Z,91.60
2018-12-21T01:41:12.663Z,91.60
2018-12-21T01:43:41.124Z,91.60
2018-12-21T01:46:09.660Z,91.60
2018-12-21T01:48:38.110Z,91.50
2018-12-21T01:51:06.631Z,91.50
2018-12-21T01:53:34.965Z,91.60
2018-12-21T01:56:03.416Z,91.60
2018-12-21T01:58:31.785Z,91.60
2018-12-21T02:01:00.123Z,91.60
2018-12-21T02:03:28.494Z,91.50
2018-12-21T02:05:56.976Z,91.70
2018-12-21T02:08:25.502Z,91.60
2018-12-21T02:10:53.874Z,91.50
2018-12-21T02:13:22.249Z,91.50
2018-12-21T02:15:50.616Z,91.50
2018-12-21T02:18:18.938Z,91.50
2018-12-21T02:20:47.341Z,91.60
2018-12-21T02:23:15.655Z,91.40
2018-12-21T02:25:43.975Z,91.30
2018-12-21T02:28:12.356Z,91.40
2018-12-21T02:30:40.701Z,91.40
2018-12-21T02:33:09.043Z,91.50
2018-12-21T02:35:37.427Z,91.50
2018-12-21T02:38:05.743Z,91.40
2018-12-21T02:40:34.080Z,91.30
2018-12-21T02:43:02.654Z,91.20
2018-12-21T02:45:31.036Z,91.20
2018-12-21T02:47:59.377Z,91.10
2018-12-21T02:50:27.712Z,91.00
2018-12-21T02:52:56.083Z,90.90
2018-12-21T02:55:24.455Z,90.80
2018-12-21T02:57:52.808Z,90.90
2018-12-21T03:00:21.327Z,91.00
2018-12-21T03:02:49.683Z,91.10
2018-12-21T03:05:18.134Z,91.10
2018-12-21T03:07:46.505Z,91.20
2018-12-21T03:10:15.675Z,91.30
2018-12-21T03:12:44.068Z,91.30
2018-12-21T03:15:12.473Z,91.30
2018-12-21T03:17:40.825Z,91.40
2018-12-21T03:20:09.425Z,91.40
2018-12-21T03:22:37.804Z,91.50
2018-12-21T03:25:06.255Z,91.50
2018-12-21T03:27:34.617Z,91.60
2018-12-21T03:30:03.228Z,91.60
2018-12-21T03:32:31.796Z,91.70
2018-12-21T03:35:00.129Z,91.70
2018-12-21T03:37:28.503Z,91.70
2018-12-21T03:39:56.826Z,91.30
2018-12-21T03:42:25.179Z,91.30
2018-12-21T03:44:53.696Z,91.30
2018-12-21T03:47:22.091Z,91.10
2018-12-21T03:49:50.443Z,91.20
2018-12-21T03:52:24.138Z,91.10
2018-12-21T03:54:49.301Z,91.30
2018-12-21T03:57:17.637Z,91.50
2018-12-21T03:59:45.975Z,91.20
2018-12-21T04:02:14.343Z,91.60
2018-12-21T04:04:42.723Z,91.20
2018-12-21T04:07:11.064Z,91.20
2018-12-21T04:09:39.481Z,91.30
2018-12-21T04:12:07.867Z,91.30
2018-12-21T04:14:36.253Z,91.40
2018-12-21T04:17:04.869Z,91.30
2018-12-21T04:19:33.205Z,91.40
2018-12-21T04:22:01.539Z,91.30
2018-12-21T04:24:29.937Z,91.00
2018-12-21T04:26:58.270Z,91.30
2018-12-21T04:29:26.641Z,91.40
2018-12-21T04:31:54.971Z,91.30
2018-12-21T04:34:23.358Z,91.40
2018-12-21T04:36:51.796Z,91.40
2018-12-21T04:39:20.332Z,91.40
2018-12-21T04:41:48.670Z,91.50
2018-12-21T04:44:17.069Z,91.50
2018-12-21T04:46:45.563Z,91.60
2018-12-21T04:49:14.017Z,91.70
2018-12-21T04:51:42.350Z,91.60
2018-12-21T04:54:10.927Z,91.60
2018-12-21T04:56:39.270Z,91.60
2018-12-21T04:59:09.597Z,91.60
2018-12-21T05:01:38.268Z,91.60
2018-12-21T05:04:06.577Z,91.60
2018-12-21T05:06:34.920Z,91.50
2018-12-21T05:09:04.653Z,91.50
2018-12-21T05:11:32.989Z,91.40
2018-12-21T05:14:01.343Z,91.40
2018-12-21T05:16:29.716Z,91.30
2018-12-21T05:18:58.065Z,91.30
2018-12-21T05:21:26.458Z,91.30
2018-12-21T05:23:54.881Z,91.30
2018-12-21T05:26:23.258Z,91.10
2018-12-21T05:28:51.602Z,91.10
2018-12-21T05:31:28.081Z,91.00
2018-12-21T05:33:50.338Z,90.80
2018-12-21T05:36:18.672Z,90.80
2018-12-21T05:38:47.029Z,90.70
2018-12-21T05:41:15.464Z,90.70
2018-12-21T05:43:43.803Z,90.60
2018-12-21T05:46:12.131Z,90.40
2018-12-21T05:48:40.985Z,90.40
2018-12-21T05:51:09.349Z,90.50
2018-12-21T05:53:37.735Z,90.40
2018-12-21T05:56:06.318Z,90.40
2018-12-21T05:58:34.761Z,90.60
2018-12-21T06:01:03.174Z,90.60
2018-12-21T06:03:31.578Z,90.70
2018-12-21T06:05:59.963Z,90.50
2018-12-21T06:08:28.325Z,90.40
2018-12-21T06:10:56.679Z,90.30
2018-12-21T06:13:25.055Z,90.30
2018-12-21T06:15:53.504Z,90.20
2018-12-21T06:18:21.946Z,90.20
2018-12-21T06:20:50.319Z,90.00
2018-12-21T06:23:18.685Z,90.00
2018-12-21T06:25:47.074Z,90.00
2018-12-21T06:28:15.546Z,90.40
2018-12-21T06:30:43.875Z,90.00
2018-12-21T06:33:12.269Z,90.00
2018-12-21T06:35:40.589Z,89.80
2018-12-21T06:38:09.520Z,89.70
2018-12-21T06:40:38.411Z,89.50
2018-12-21T06:43:06.749Z,89.90
2018-12-21T06:45:35.165Z,89.70
2018-12-21T06:48:03.515Z,90.00
2018-12-21T06:50:31.834Z,90.10
2018-12-21T06:53:00.289Z,90.10
2018-12-21T06:55:28.635Z,90.30
2018-12-21T06:57:56.975Z,90.70
2018-12-21T07:00:25.377Z,90.40
2018-12-21T07:02:54.063Z,90.00
2018-12-21T07:05:22.387Z,90.10
2018-12-21T07:07:50.777Z,90.10
2018-12-21T07:10:19.134Z,90.10
2018-12-21T07:12:47.547Z,90.20
2018-12-21T07:15:15.869Z,89.80
2018-12-21T07:17:44.209Z,90.00
2018-12-21T07:20:12.676Z,90.00
2018-12-21T07:22:41.009Z,90.10
2018-12-21T07:25:09.559Z,90.10
2018-12-21T07:27:38.184Z,90.50
2018-12-21T07:30:09.861Z,90.20
2018-12-21T07:32:38.255Z,90.30
2018-12-21T07:35:09.568Z,90.20
2018-12-21T07:37:38.049Z,90.20
2018-12-21T07:40:07.809Z,90.40
2018-12-21T07:42:36.172Z,90.50
2018-12-21T07:45:04.923Z,90.20
2018-12-21T07:47:33.255Z,90.20
2018-12-21T07:50:01.648Z,90.20
2018-12-21T07:52:30.067Z,90.20
2018-12-21T07:54:58.455Z,90.10
2018-12-21T07:57:26.858Z,90.10
2018-12-21T07:59:55.190Z,90.10
2018-12-21T08:02:24.082Z,90.10
2018-12-21T08:04:52.518Z,90.20
2018-12-21T08:07:20.910Z,90.20
2018-12-21T08:09:49.258Z,90.50
2018-12-21T08:12:17.588Z,90.60
2018-12-21T08:14:45.948Z,90.70
2018-12-21T08:17:14.524Z,90.80
2018-12-21T08:19:42.888Z,91.10
2018-12-21T08:22:11.264Z,91.40
2018-12-21T08:24:39.600Z,91.20
2018-12-21T08:27:08.660Z,91.80
2018-12-21T08:29:36.987Z,92.10
2018-12-21T08:32:05.329Z,92.10
2018-12-21T08:34:33.734Z,92.20
2018-12-21T08:37:02.070Z,92.50
2018-12-21T08:39:30.418Z,92.50
2018-12-21T08:41:58.790Z,92.80
2018-12-21T08:44:27.102Z,93.00
2018-12-21T08:46:55.495Z,92.90
2018-12-21T08:49:23.832Z,93.00
2018-12-21T08:51:52.230Z,93.20
2018-12-21T08:54:20.612Z,93.40
2018-12-21T08:56:48.946Z,93.40
2018-12-21T08:59:17.344Z,93.50
2018-12-21T09:01:46.620Z,93.40
2018-12-21T09:04:14.958Z,93.30
2018-12-21T09:06:43.522Z,93.40
2018-12-21T09:09:11.860Z,93.40
2018-12-21T09:11:40.188Z,93.50
2018-12-21T09:14:08.548Z,93.40
2018-12-21T09:16:37.190Z,93.50
2018-12-21T09:19:05.715Z,93.40
2018-12-21T09:21:34.075Z,93.80
2018-12-21T09:24:02.420Z,93.50
2018-12-21T09:26:30.883Z,93.50
2018-12-21T09:28:59.263Z,93.50
2018-12-21T09:31:28.217Z,93.50
2018-12-21T09:33:56.620Z,93.50
2018-12-21T09:36:24.948Z,93.50
2018-12-21T09:38:53.307Z,93.60
2018-12-21T09:41:21.729Z,93.70
2018-12-21T09:43:50.084Z,93.70
2018-12-21T09:46:18.411Z,93.70
2018-12-21T09:48:46.838Z,93.80
2018-12-21T09:51:15.654Z,93.60
2018-12-21T09:53:44.079Z,93.80
2018-12-21T09:56:12.557Z,93.90
2018-12-21T09:58:40.897Z,93.80
2018-12-21T10:01:09.235Z,93.90
2018-12-21T10:03:37.873Z,93.90
2018-12-21T10:06:06.219Z,94.00
2018-12-21T10:08:34.542Z,94.10
2018-12-21T10:11:02.951Z,94.10
2018-12-21T10:13:31.309Z,94.10
2018-12-21T10:15:59.660Z,94.10
2018-12-21T10:18:28.089Z,94.10
2018-12-21T10:20:56.424Z,94.10
2018-12-21T10:23:24.771Z,94.10
2018-12-21T10:25:53.199Z,94.10
2018-12-21T10:28:21.637Z,94.30
2018-12-21T10:30:49.997Z,94.10
2018-12-21T10:33:18.505Z,94.00
2018-12-21T10:35:46.887Z,94.20
2018-12-21T10:38:15.240Z,94.20
2018-12-21T10:40:43.783Z,94.60
2018-12-21T10:43:12.232Z,94.60
2018-12-21T10:45:41.677Z,94.90
2018-12-21T10:48:10.503Z,95.00
2018-12-21T10:50:38.833Z,95.30
2018-12-21T10:53:07.312Z,95.20
2018-12-21T10:55:35.703Z,95.40
2018-12-21T10:58:04.137Z,95.50
2018-12-21T11:00:32.561Z,95.20
2018-12-21T11:03:01.525Z,95.20
2018-12-21T11:05:29.905Z,95.20
2018-12-21T11:07:58.230Z,95.20
2018-12-21T11:10:26.725Z,94.90
2018-12-21T11:12:55.123Z,94.80
2018-12-21T11:15:23.569Z,94.60
2018-12-21T11:17:52.065Z,94.70
2018-12-21T11:20:20.402Z,94.20
2018-12-21T11:22:48.863Z,94.20
2018-12-21T11:25:17.463Z,94.10
2018-12-21T11:27:45.975Z,94.10
2018-12-21T11:30:14.384Z,93.70
2018-12-21T11:32:42.765Z,93.60
2018-12-21T11:35:11.095Z,93.10
2018-12-21T11:37:39.791Z,93.50
2018-12-21T11:40:08.343Z,93.40
2018-12-21T11:42:36.743Z,93.30
2018-12-21T11:45:06.941Z,93.50
2018-12-21T11:47:35.349Z,93.10
2018-12-21T11:50:04.689Z,93.00
2018-12-21T11:52:33.032Z,93.50
2018-12-21T11:55:01.430Z,93.40
2018-12-21T11:57:29.909Z,93.10
2018-12-21T11:59:58.253Z,93.60
2018-12-21T12:02:26.605Z,93.10
2018-12-21T12:04:55.009Z,92.60
2018-12-21T12:07:23.363Z,93.00
2018-12-21T12:09:51.917Z,92.70
2018-12-21T12:12:20.325Z,93.10
2018-12-21T12:14:48.702Z,92.70
2018-12-21T12:17:17.127Z,92.70
2018-12-21T12:19:45.495Z,92.70
2018-12-21T12:22:13.909Z,93.10
2018-12-21T12:24:42.283Z,93.60
2018-12-21T12:27:10.657Z,93.80
2018-12-21T12:29:39.079Z,93.90
2018-12-21T12:32:07.424Z,94.00
2018-12-21T12:34:38.387Z,93.90
2018-12-21T12:37:07.895Z,93.90
2018-12-21T12:39:36.287Z,94.00
2018-12-21T12:42:04.671Z,93.90
2018-12-21T12:44:33.033Z,94.10
2018-12-21T12:47:01.833Z,93.80
2018-12-21T12:49:30.227Z,93.60
2018-12-21T12:51:58.714Z,93.40
2018-12-21T12:54:28.039Z,93.40
2018-12-21T12:56:56.378Z,93.40
2018-12-21T12:59:24.995Z,93.80
2018-12-21T13:01:53.449Z,93.70
2018-12-21T13:04:21.810Z,93.80
2018-12-21T13:06:50.159Z,93.60
2018-12-21T13:09:19.244Z,93.50
2018-12-21T13:11:47.610Z,93.90
2018-12-21T13:14:16.658Z,93.50
2018-12-21T13:16:46.029Z,93.60
2018-12-21T13:19:14.447Z,93.70
2018-12-21T13:21:42.833Z,93.50
2018-12-21T13:24:11.353Z,93.70
2018-12-21T13:26:39.726Z,93.80
2018-12-21T13:29:08.371Z,93.70
2018-12-21T13:31:36.805Z,93.90
2018-12-21T13:34:05.170Z,93.90
2018-12-21T13:36:34.074Z,93.80
2018-12-21T13:39:02.932Z,93.90
2018-12-21T13:41:31.271Z,94.00
2018-12-21T13:43:59.682Z,94.10
2018-12-21T13:46:28.036Z,94.30
2018-12-21T13:48:56.389Z,94.40
2018-12-21T13:51:24.812Z,94.30
2018-12-21T13:53:53.144Z,94.20
2018-12-21T13:56:21.484Z,94.10
2018-12-21T13:58:49.893Z,94.10
2018-12-21T14:01:18.384Z,94.40
2018-12-21T14:03:46.804Z,94.10
2018-12-21T14:06:15.149Z,94.10
2018-12-21T14:08:43.526Z,94.20
2018-12-21T14:11:11.906Z,94.40
2018-12-21T14:13:40.374Z,94.40
2018-12-21T14:16:08.851Z,94.40
2018-12-21T14:18:37.188Z,94.40
2018-12-21T14:21:05.707Z,94.40
2018-12-21T14:23:34.062Z,94.40
2018-12-21T14:26:02.463Z,94.40
2018-12-21T14:28:30.887Z,94.40
2018-12-21T14:30:59.214Z,94.50
2018-12-21T14:33:27.619Z,94.80
2018-12-21T14:35:56.026Z,94.70
2018-12-21T14:38:24.407Z,94.80
2018-12-21T14:40:52.795Z,95.10
2018-12-21T14:43:21.227Z,95.10
2018-12-21T14:45:49.792Z,95.20
2018-12-21T14:48:18.151Z,95.00
2018-12-21T14:50:46.478Z,95.10
2018-12-21T14:53:14.886Z,95.10
2018-12-21T14:55:43.266Z,95.00
2018-12-21T14:58:11.688Z,95.10
2018-12-21T15:00:40.088Z,95.30
2018-12-21T15:03:08.449Z,95.80
2018-12-21T15:05:36.836Z,95.30
2018-12-21T15:08:05.162Z,95.50
2018-12-21T15:10:33.568Z,95.40
2018-12-21T15:13:01.946Z,95.50
2018-12-21T15:15:30.454Z,95.50
2018-12-21T15:17:58.888Z,95.70
2018-12-21T15:20:27.435Z,95.60
2018-12-21T15:22:55.781Z,95.40
2018-12-21T15:25:24.496Z,95.30
2018-12-21T15:27:52.894Z,95.40
2018-12-21T15:30:21.280Z,95.20
2018-12-21T15:32:49.594Z,95.20
2018-12-21T15:35:18.009Z,95.20
2018-12-21T15:37:46.378Z,95.10
2018-12-21T15:40:15.369Z,95.10
2018-12-21T15:42:43.731Z,95.10
2018-12-21T15:45:12.367Z,94.80
2018-12-21T15:47:40.852Z,94.70
2018-12-21T15:50:11.668Z,94.70
2018-12-21T15:52:42.096Z,94.70
2018-12-21T15:55:10.555Z,94.80
2018-12-21T15:57:39.058Z,94.80
2018-12-21T16:00:11.037Z,94.60
2018-12-21T16:02:40.485Z,94.50
2018-12-21T16:05:08.870Z,94.60
2018-12-21T16:07:37.390Z,95.00
2018-12-21T16:10:07.025Z,95.10
2018-12-21T16:12:35.367Z,95.00
2018-12-21T16:15:04.159Z,95.10
2018-12-21T16:17:33.107Z,95.20
2018-12-21T16:20:01.467Z,95.20
2018-12-21T16:22:29.910Z,95.20
2018-12-21T16:24:58.888Z,95.00
2018-12-21T16:27:27.278Z,95.00
2018-12-21T16:29:55.673Z,95.00
2018-12-21T16:32:24.953Z,95.20
2018-12-21T16:34:53.330Z,95.20
2018-12-21T16:37:21.833Z,95.20
2018-12-21T16:39:59.586Z,95.20
2018-12-21T16:42:27.962Z,95.20
2018-12-21T16:44:56.531Z,95.20
2018-12-21T16:47:24.871Z,95.20
2018-12-21T16:49:53.318Z,95.20
2018-12-21T16:52:34.155Z,95.20
2018-12-21T16:55:02.490Z,95.20
2018-12-21T16:57:30.892Z,95.30
2018-12-21T16:59:59.290Z,95.20
2018-12-21T17:02:27.774Z,95.20
2018-12-21T17:04:56.109Z,95.20
2018-12-21T17:07:24.597Z,95.20
2018-12-21T17:09:53.027Z,95.20
2018-12-21T17:12:21.357Z,95.10
2018-12-21T17:14:49.697Z,95.20
2018-12-21T17:17:18.077Z,95.20
2018-12-21T17:19:46.439Z,95.30
2018-12-21T17:22:14.942Z,95.60
2018-12-21T17:24:43.420Z,95.20
2018-12-21T17:27:11.751Z,95.40
2018-12-21T17:29:40.292Z,95.10
2018-12-21T17:32:08.722Z,95.00
2018-12-21T17:34:37.079Z,95.00
2018-12-21T17:37:05.611Z,95.40
2018-12-21T17:39:34.033Z,95.20
2018-12-21T17:42:02.357Z,95.50
2018-12-21T17:44:30.759Z,95.20
2018-12-21T17:46:59.115Z,95.10
2018-12-21T17:49:27.511Z,95.20
2018-12-21T17:52:01.424Z,95.30
2018-12-21T17:54:26.323Z,95.20
2018-12-21T17:56:54.778Z,95.20
2018-12-21T17:59:28.084Z,95.20
2018-12-21T18:01:56.494Z,95.40
2018-12-21T18:04:28.406Z,95.30
2018-12-21T18:06:57.100Z,95.30
2018-12-21T18:09:29.505Z,95.70
2018-12-21T18:11:57.835Z,95.30
2018-12-21T18:14:26.214Z,94.90
2018-12-21T18:16:54.776Z,94.80
2018-12-21T18:19:23.137Z,94.90
2018-12-21T18:21:58.590Z,94.70
2018-12-21T18:24:28.113Z,94.80
2018-12-21T18:26:56.565Z,94.70
2018-12-21T18:29:27.905Z,94.80
2018-12-21T18:32:04.188Z,94.70
2018-12-21T18:34:35.677Z,94.70
2018-12-21T18:37:06.541Z,94.50
2018-12-21T18:39:35.341Z,94.50
2018-12-21T18:42:05.771Z,94.60
2018-12-21T18:44:34.544Z,94.50
2018-12-21T18:47:03.041Z,94.50
2018-12-21T18:49:32.507Z,94.60
2018-12-21T18:52:01.877Z,94.70
2018-12-21T18:54:30.235Z,94.70
2018-12-21T18:57:01.407Z,94.70
2018-12-21T18:59:30.357Z,94.70
2018-12-21T19:01:59.894Z,94.70
2018-12-21T19:04:28.235Z,94.40
2018-12-21T19:06:56.728Z,94.40
2018-12-21T19:09:25.438Z,94.40
2018-12-21T19:11:53.839Z,94.40
2018-12-21T19:14:22.197Z,94.30
2018-12-21T19:16:50.842Z,94.20
2018-12-21T19:19:19.227Z,94.20
2018-12-21T19:21:47.607Z,94.30
2018-12-21T19:24:15.983Z,94.20
2018-12-21T19:26:44.357Z,94.30
2018-12-21T19:29:12.719Z,94.30
2018-12-21T19:31:41.203Z,94.50
2018-12-21T19:34:09.531Z,94.40
2018-12-21T19:36:38.075Z,94.40
2018-12-21T19:39:08.990Z,94.60
2018-12-21T19:41:37.483Z,94.40
2018-12-21T19:44:05.859Z,94.50
2018-12-21T19:46:34.244Z,94.50
2018-12-21T19:49:02.593Z,94.60
2018-12-21T19:51:31.054Z,94.70
2018-12-21T19:53:59.455Z,94.50
2018-12-21T19:56:41.123Z,94.80
2018-12-21T19:59:09.545Z,94.60
2018-12-21T20:01:37.908Z,94.80
2018-12-21T20:04:06.275Z,94.80
2018-12-21T20:06:35.192Z,94.80
2018-12-21T20:09:05.658Z,94.80
2018-12-21T20:11:34.089Z,94.80
2018-12-21T20:14:02.498Z,94.80
2018-12-21T20:16:31.336Z,94.80
2018-12-21T20:18:59.837Z,94.80
2018-12-21T20:21:28.328Z,94.40
2018-12-21T20:23:56.737Z,94.80
2018-12-21T20:26:25.141Z,94.80
2018-12-21T20:28:53.522Z,94.90
2018-12-21T20:31:21.874Z,94.80
2018-12-21T20:33:50.261Z,94.80
2018-12-21T20:36:18.670Z,94.80
2018-12-21T20:38:48.322Z,94.80
2018-12-21T20:41:16.706Z,94.80
2018-12-21T20:43:45.065Z,94.80
2018-12-21T20:46:13.660Z,95.00
2018-12-21T20:48:42.271Z,94.60
2018-12-21T20:51:10.621Z,94.60
2018-12-21T20:53:39.106Z,94.60
2018-12-21T20:56:07.499Z,94.70
2018-12-21T20:58:45.337Z,94.70
2018-12-21T21:01:13.691Z,94.60
2018-12-21T21:03:42.109Z,94.70
2018-12-21T21:06:10.483Z,95.10
2018-12-21T21:08:39.627Z,94.60
2018-12-21T21:11:08.013Z,94.80
2018-12-21T21:13:36.657Z,94.60
2018-12-21T21:16:05.024Z,94.80
2018-12-21T21:18:33.449Z,94.70
2018-12-21T21:21:02.939Z,94.90
2018-12-21T21:23:31.273Z,95.00
2018-12-21T21:25:59.774Z,94.90
2018-12-21T21:28:28.099Z,94.80
2018-12-21T21:30:56.449Z,94.80
2018-12-21T21:33:24.861Z,94.80
2018-12-21T21:35:53.188Z,94.80
2018-12-21T21:38:21.523Z,94.80
2018-12-21T21:40:49.954Z,94.90
2018-12-21T21:43:20.078Z,94.80
2018-12-21T21:45:48.461Z,94.90
2018-12-21T21:48:16.860Z,94.90
2018-12-21T21:50:45.192Z,94.90
2018-12-21T21:53:13.541Z,94.90
2018-12-21T21:55:41.923Z,95.20
2018-12-21T21:58:10.275Z,95.40
2018-12-21T22:00:38.664Z,95.40
2018-12-21T22:03:07.015Z,95.30
2018-12-21T22:05:35.354Z,95.20
2018-12-21T22:08:03.902Z,95.30
2018-12-21T22:10:32.251Z,95.20
2018-12-21T22:13:01.262Z,95.40
2018-12-21T22:15:29.814Z,95.20
2018-12-21T22:17:58.547Z,95.40
2018-12-21T22:20:26.958Z,95.60
2018-12-21T22:22:55.285Z,95.50
2018-12-21T22:25:23.746Z,96.00
2018-12-21T22:27:52.180Z,95.80
2018-12-21T22:30:20.541Z,95.70
2018-12-21T22:32:48.867Z,95.60
2018-12-21T22:35:17.842Z,95.40
2018-12-21T22:37:46.171Z,95.50
2018-12-21T22:40:14.497Z,95.60
2018-12-21T22:42:42.881Z,95.80
2018-12-21T22:45:11.316Z,95.50
2018-12-21T22:47:39.659Z,95.30
2018-12-21T22:50:09.127Z,95.80
2018-12-21T22:52:38.514Z,95.30
2018-12-21T22:55:08.353Z,95.50
2018-12-21T22:57:36.987Z,95.50
2018-12-21T23:00:10.422Z,95.60
2018-12-21T23:02:38.793Z,95.60
2018-12-21T23:05:07.303Z,95.60
2018-12-21T23:07:35.693Z,95.80
2018-12-21T23:10:04.374Z,95.60
2018-12-21T23:12:32.789Z,95.60
2018-12-21T23:15:01.148Z,95.70
2018-12-21T23:17:29.482Z,95.60
2018-12-21T23:19:58.102Z,95.40
2018-12-21T23:22:26.564Z,95.80
2018-12-21T23:24:54.939Z,95.60
2018-12-21T23:27:23.698Z,95.60
2018-12-21T23:29:52.445Z,95.60
2018-12-21T23:32:20.796Z,95.50
2018-12-21T23:34:49.295Z,95.60
2018-12-21T23:37:17.750Z,95.80
2018-12-21T23:39:46.090Z,95.70
2018-12-21T23:42:14.464Z,95.70
2018-12-21T23:44:43.222Z,95.90
2018-12-21T23:47:11.753Z,95.90
2018-12-21T23:49:40.346Z,95.80
2018-12-21T23:52:08.726Z,95.60
2018-12-21T23:54:37.121Z,95.60
2018-12-21T23:57:05.499Z,95.60
2018-12-21T23:59:33.834Z,95.60
